aviador You're here:

LQBK Decoded Metar

BANJA LUKA in BOSNIA-HERCEGOVINA
Report Time2018-07-22 02:30:00
UTC Time2018-07-22 02:59:03
Flight Rules vfr VFR
Wind250° at 02 kt
W.Decomp.*RWY 17: 0.4 kt HW 2.0 kt RCW
W.Rank250° ranks 36
Current wind is below 250° avg. (4.6)
Visibility9999 m
Phenomena:N/A
Clouds:Scattered 043 Hf
Expected CloudBase > 400 ft AGL from Temp-Dew spread
CeilingNone
Temp20°C (ISA +6)
Dew Point19°C (94% RH)
QNH1010 hPa
Density Alt1,473 ft
Elevation400 ft
Report Wrong Elevation
Raw Report
METAR LQBK 220230Z 25002KT 9999 SCT043 20/19 Q1010 NOSIG=

Extra information for LQBK:More info

Metar Taf Metar & Taf Last 4 Metars F.Rules Stats Wind Profile Meteogram Temp Stats Airport Information Weather charts Add Link Nearby VenuesMetar ALERT Operation Metar Decoded Social comments